sensor_id;sensor_type;location;lat;lon;timestamp;P1;durP1;ratioP1;P2;durP2;ratioP2
20177;SDS011;10248;51.218;20.866;2022-10-31T00:01:11;2.92;;;2.83;;
20177;SDS011;10248;51.218;20.866;2022-10-31T00:03:39;3.00;;;2.90;;
20177;SDS011;10248;51.218;20.866;2022-10-31T00:06:07;2.90;;;2.80;;
20177;SDS011;10248;51.218;20.866;2022-10-31T00:08:34;3.20;;;3.10;;
20177;SDS011;10248;51.218;20.866;2022-10-31T00:11:02;3.00;;;2.90;;
20177;SDS011;10248;51.218;20.866;2022-10-31T00:13:30;3.20;;;3.10;;
20177;SDS011;10248;51.218;20.866;2022-10-31T00:15:58;2.92;;;2.83;;
20177;SDS011;10248;51.218;20.866;2022-10-31T00:18:27;3.25;;;3.15;;
20177;SDS011;10248;51.218;20.866;2022-10-31T00:20:58;3.10;;;3.00;;
20177;SDS011;10248;51.218;20.866;2022-10-31T00:23:26;3.20;;;3.10;;
20177;SDS011;10248;51.218;20.866;2022-10-31T00:25:54;3.00;;;2.90;;
20177;SDS011;10248;51.218;20.866;2022-10-31T00:28:21;3.10;;;3.00;;
20177;SDS011;10248;51.218;20.866;2022-10-31T00:30:49;2.90;;;2.80;;
20177;SDS011;10248;51.218;20.866;2022-10-31T00:33:17;3.20;;;3.10;;
20177;SDS011;10248;51.218;20.866;2022-10-31T00:35:50;3.30;;;3.20;;
20177;SDS011;10248;51.218;20.866;2022-10-31T00:38:18;3.10;;;3.00;;
20177;SDS011;10248;51.218;20.866;2022-10-31T00:40:45;3.10;;;3.00;;
20177;SDS011;10248;51.218;20.866;2022-10-31T00:43:13;3.10;;;3.00;;
20177;SDS011;10248;51.218;20.866;2022-10-31T00:45:41;3.20;;;3.10;;
20177;SDS011;10248;51.218;20.866;2022-10-31T00:48:09;3.20;;;3.10;;
20177;SDS011;10248;51.218;20.866;2022-10-31T00:50:37;3.17;;;3.08;;
20177;SDS011;10248;51.218;20.866;2022-10-31T00:53:07;3.28;;;3.17;;
20177;SDS011;10248;51.218;20.866;2022-10-31T00:55:35;3.20;;;3.10;;
20177;SDS011;10248;51.218;20.866;2022-10-31T00:58:03;3.30;;;3.20;;
20177;SDS011;10248;51.218;20.866;2022-10-31T01:00:31;3.20;;;3.10;;
20177;SDS011;10248;51.218;20.866;2022-10-31T01:02:59;3.20;;;3.10;;
20177;SDS011;10248;51.218;20.866;2022-10-31T01:05:27;3.33;;;3.22;;
20177;SDS011;10248;51.218;20.866;2022-10-31T01:07:55;3.20;;;3.10;;
20177;SDS011;10248;51.218;20.866;2022-10-31T01:10:24;3.10;;;3.00;;
20177;SDS011;10248;51.218;20.866;2022-10-31T01:12:51;3.40;;;3.30;;
20177;SDS011;10248;51.218;20.866;2022-10-31T01:15:20;3.17;;;3.08;;
20177;SDS011;10248;51.218;20.866;2022-10-31T01:17:49;3.20;;;3.10;;
20177;SDS011;10248;51.218;20.866;2022-10-31T01:20:17;3.40;;;3.30;;
20177;SDS011;10248;51.218;20.866;2022-10-31T01:22:44;3.20;;;3.10;;
20177;SDS011;10248;51.218;20.866;2022-10-31T01:25:12;3.20;;;3.10;;
20177;SDS011;10248;51.218;20.866;2022-10-31T01:27:41;3.20;;;3.10;;
20177;SDS011;10248;51.218;20.866;2022-10-31T01:30:09;3.35;;;3.25;;
20177;SDS011;10248;51.218;20.866;2022-10-31T01:32:37;3.15;;;3.05;;
20177;SDS011;10248;51.218;20.866;2022-10-31T01:35:05;3.20;;;3.10;;
20177;SDS011;10248;51.218;20.866;2022-10-31T01:37:33;3.40;;;3.30;;
20177;SDS011;10248;51.218;20.866;2022-10-31T01:40:01;3.20;;;3.10;;
20177;SDS011;10248;51.218;20.866;2022-10-31T01:42:29;3.10;;;3.00;;
20177;SDS011;10248;51.218;20.866;2022-10-31T01:44:59;3.20;;;3.10;;
20177;SDS011;10248;51.218;20.866;2022-10-31T01:47:35;3.28;;;3.17;;
20177;SDS011;10248;51.218;20.866;2022-10-31T01:50:09;3.25;;;3.15;;
20177;SDS011;10248;51.218;20.866;2022-10-31T01:52:39;3.17;;;3.08;;
20177;SDS011;10248;51.218;20.866;2022-10-31T01:55:09;3.38;;;3.28;;
20177;SDS011;10248;51.218;20.866;2022-10-31T01:57:40;3.22;;;3.13;;
20177;SDS011;10248;51.218;20.866;2022-10-31T02:00:12;3.30;;;3.20;;
20177;SDS011;10248;51.218;20.866;2022-10-31T02:02:40;3.20;;;3.10;;
20177;SDS011;10248;51.218;20.866;2022-10-31T02:05:10;3.40;;;3.30;;
20177;SDS011;10248;51.218;20.866;2022-10-31T02:07:45;2.95;;;2.85;;
20177;SDS011;10248;51.218;20.866;2022-10-31T02:10:16;3.13;;;3.03;;
20177;SDS011;10248;51.218;20.866;2022-10-31T02:12:44;3.22;;;3.13;;
20177;SDS011;10248;51.218;20.866;2022-10-31T02:15:13;3.28;;;3.17;;
20177;SDS011;10248;51.218;20.866;2022-10-31T02:17:41;3.13;;;3.03;;
20177;SDS011;10248;51.218;20.866;2022-10-31T02:20:11;3.60;;;3.50;;
20177;SDS011;10248;51.218;20.866;2022-10-31T02:22:51;3.30;;;3.20;;
20177;SDS011;10248;51.218;20.866;2022-10-31T02:25:40;3.00;;;2.90;;
20177;SDS011;10248;51.218;20.866;2022-10-31T02:28:23;3.10;;;3.00;;
20177;SDS011;10248;51.218;20.866;2022-10-31T02:31:02;3.03;;;2.92;;
20177;SDS011;10248;51.218;20.866;2022-10-31T02:33:38;3.25;;;3.15;;
20177;SDS011;10248;51.218;20.866;2022-10-31T02:36:10;3.20;;;3.10;;
20177;SDS011;10248;51.218;20.866;2022-10-31T02:38:46;3.10;;;3.00;;
20177;SDS011;10248;51.218;20.866;2022-10-31T02:41:19;3.30;;;3.20;;
20177;SDS011;10248;51.218;20.866;2022-10-31T02:43:54;3.10;;;3.00;;
20177;SDS011;10248;51.218;20.866;2022-10-31T02:46:30;3.30;;;3.20;;
20177;SDS011;10248;51.218;20.866;2022-10-31T02:49:02;3.15;;;3.05;;
20177;SDS011;10248;51.218;20.866;2022-10-31T02:51:33;3.03;;;2.92;;
20177;SDS011;10248;51.218;20.866;2022-10-31T02:54:01;3.00;;;2.90;;
20177;SDS011;10248;51.218;20.866;2022-10-31T02:56:29;3.20;;;3.10;;
20177;SDS011;10248;51.218;20.866;2022-10-31T02:58:59;3.33;;;3.22;;
20177;SDS011;10248;51.218;20.866;2022-10-31T03:01:45;3.30;;;3.20;;
20177;SDS011;10248;51.218;20.866;2022-10-31T03:04:26;3.10;;;3.00;;
20177;SDS011;10248;51.218;20.866;2022-10-31T03:07:00;3.25;;;3.15;;
20177;SDS011;10248;51.218;20.866;2022-10-31T03:09:33;3.10;;;3.00;;
20177;SDS011;10248;51.218;20.866;2022-10-31T03:12:03;3.20;;;3.10;;
20177;SDS011;10248;51.218;20.866;2022-10-31T03:14:38;3.25;;;3.15;;
20177;SDS011;10248;51.218;20.866;2022-10-31T03:17:12;3.03;;;2.92;;
20177;SDS011;10248;51.218;20.866;2022-10-31T03:19:42;3.28;;;3.17;;
20177;SDS011;10248;51.218;20.866;2022-10-31T03:22:15;3.00;;;2.90;;
20177;SDS011;10248;51.218;20.866;2022-10-31T03:24:44;3.28;;;3.17;;
20177;SDS011;10248;51.218;20.866;2022-10-31T03:30:36;2.85;;;2.75;;
20177;SDS011;10248;51.218;20.866;2022-10-31T03:33:08;3.17;;;3.08;;
20177;SDS011;10248;51.218;20.866;2022-10-31T03:35:38;3.10;;;3.00;;
20177;SDS011;10248;51.218;20.866;2022-10-31T03:38:09;3.10;;;3.00;;
20177;SDS011;10248;51.218;20.866;2022-10-31T03:40:37;2.90;;;2.80;;
20177;SDS011;10248;51.218;20.866;2022-10-31T03:43:06;2.85;;;2.75;;
20177;SDS011;10248;51.218;20.866;2022-10-31T03:45:37;3.10;;;3.00;;
20177;SDS011;10248;51.218;20.866;2022-10-31T03:48:08;3.30;;;3.20;;
20177;SDS011;10248;51.218;20.866;2022-10-31T03:50:37;3.30;;;3.20;;
20177;SDS011;10248;51.218;20.866;2022-10-31T03:53:08;3.08;;;2.97;;
20177;SDS011;10248;51.218;20.866;2022-10-31T03:55:39;3.40;;;3.30;;
20177;SDS011;10248;51.218;20.866;2022-10-31T03:58:08;3.20;;;3.10;;
20177;SDS011;10248;51.218;20.866;2022-10-31T04:00:38;3.10;;;3.00;;
20177;SDS011;10248;51.218;20.866;2022-10-31T04:03:11;3.08;;;2.97;;
20177;SDS011;10248;51.218;20.866;2022-10-31T04:05:41;3.03;;;2.92;;
20177;SDS011;10248;51.218;20.866;2022-10-31T04:08:14;3.00;;;2.90;;
20177;SDS011;10248;51.218;20.866;2022-10-31T04:10:44;3.20;;;3.10;;
20177;SDS011;10248;51.218;20.866;2022-10-31T04:13:17;3.05;;;2.95;;
20177;SDS011;10248;51.218;20.866;2022-10-31T04:15:47;3.00;;;2.90;;
20177;SDS011;10248;51.218;20.866;2022-10-31T04:18:18;3.20;;;3.10;;
20177;SDS011;10248;51.218;20.866;2022-10-31T04:20:46;3.08;;;2.97;;
20177;SDS011;10248;51.218;20.866;2022-10-31T04:23:17;3.30;;;3.20;;
20177;SDS011;10248;51.218;20.866;2022-10-31T04:25:52;3.25;;;3.15;;
20177;SDS011;10248;51.218;20.866;2022-10-31T04:28:19;3.20;;;3.10;;
20177;SDS011;10248;51.218;20.866;2022-10-31T04:30:47;3.10;;;3.00;;
20177;SDS011;10248;51.218;20.866;2022-10-31T04:33:15;3.20;;;3.10;;
20177;SDS011;10248;51.218;20.866;2022-10-31T04:35:44;3.20;;;3.10;;
20177;SDS011;10248;51.218;20.866;2022-10-31T04:38:12;3.40;;;3.30;;
20177;SDS011;10248;51.218;20.866;2022-10-31T04:40:40;3.30;;;3.20;;
20177;SDS011;10248;51.218;20.866;2022-10-31T04:43:07;3.20;;;3.10;;
20177;SDS011;10248;51.218;20.866;2022-10-31T04:45:36;3.30;;;3.20;;
20177;SDS011;10248;51.218;20.866;2022-10-31T04:48:04;3.30;;;3.20;;
20177;SDS011;10248;51.218;20.866;2022-10-31T04:50:32;2.95;;;2.85;;
20177;SDS011;10248;51.218;20.866;2022-10-31T04:53:02;3.30;;;3.20;;
20177;SDS011;10248;51.218;20.866;2022-10-31T04:55:30;3.20;;;3.10;;
20177;SDS011;10248;51.218;20.866;2022-10-31T04:57:58;3.30;;;3.20;;
20177;SDS011;10248;51.218;20.866;2022-10-31T05:00:26;3.20;;;3.10;;
20177;SDS011;10248;51.218;20.866;2022-10-31T05:02:55;3.30;;;3.20;;
20177;SDS011;10248;51.218;20.866;2022-10-31T05:05:26;3.30;;;3.20;;
20177;SDS011;10248;51.218;20.866;2022-10-31T05:07:56;3.05;;;2.95;;
20177;SDS011;10248;51.218;20.866;2022-10-31T05:10:26;3.10;;;3.00;;
20177;SDS011;10248;51.218;20.866;2022-10-31T05:12:55;3.00;;;2.90;;
20177;SDS011;10248;51.218;20.866;2022-10-31T05:15:25;3.30;;;3.20;;
20177;SDS011;10248;51.218;20.866;2022-10-31T05:17:53;3.10;;;3.00;;
20177;SDS011;10248;51.218;20.866;2022-10-31T05:20:22;3.30;;;3.20;;
20177;SDS011;10248;51.218;20.866;2022-10-31T05:22:52;3.08;;;2.97;;
20177;SDS011;10248;51.218;20.866;2022-10-31T05:25:21;3.28;;;3.17;;
20177;SDS011;10248;51.218;20.866;2022-10-31T05:27:51;3.05;;;2.95;;
20177;SDS011;10248;51.218;20.866;2022-10-31T05:30:20;3.30;;;3.20;;
20177;SDS011;10248;51.218;20.866;2022-10-31T05:32:49;3.00;;;2.90;;
20177;SDS011;10248;51.218;20.866;2022-10-31T05:35:18;3.05;;;2.95;;
20177;SDS011;10248;51.218;20.866;2022-10-31T05:37:47;3.30;;;3.20;;
20177;SDS011;10248;51.218;20.866;2022-10-31T05:40:17;3.20;;;3.10;;
20177;SDS011;10248;51.218;20.866;2022-10-31T05:42:45;3.30;;;3.20;;
20177;SDS011;10248;51.218;20.866;2022-10-31T05:45:15;3.20;;;3.10;;
20177;SDS011;10248;51.218;20.866;2022-10-31T05:47:49;3.13;;;3.03;;
20177;SDS011;10248;51.218;20.866;2022-10-31T05:50:17;3.20;;;3.10;;
20177;SDS011;10248;51.218;20.866;2022-10-31T05:52:45;3.20;;;3.10;;
20177;SDS011;10248;51.218;20.866;2022-10-31T05:55:13;3.20;;;3.10;;
20177;SDS011;10248;51.218;20.866;2022-10-31T05:57:41;3.40;;;3.30;;
20177;SDS011;10248;51.218;20.866;2022-10-31T06:00:09;3.03;;;2.92;;
20177;SDS011;10248;51.218;20.866;2022-10-31T06:02:39;3.30;;;3.20;;
20177;SDS011;10248;51.218;20.866;2022-10-31T06:05:09;3.20;;;3.10;;
20177;SDS011;10248;51.218;20.866;2022-10-31T06:07:37;3.30;;;3.20;;
20177;SDS011;10248;51.218;20.866;2022-10-31T06:10:06;3.05;;;2.95;;
20177;SDS011;10248;51.218;20.866;2022-10-31T06:12:36;3.40;;;3.30;;
20177;SDS011;10248;51.218;20.866;2022-10-31T06:15:04;3.28;;;3.17;;
20177;SDS011;10248;51.218;20.866;2022-10-31T06:17:33;3.50;;;3.40;;
20177;SDS011;10248;51.218;20.866;2022-10-31T06:20:02;3.50;;;3.40;;
20177;SDS011;10248;51.218;20.866;2022-10-31T06:22:31;3.60;;;3.50;;
20177;SDS011;10248;51.218;20.866;2022-10-31T06:24:59;3.80;;;3.60;;
20177;SDS011;10248;51.218;20.866;2022-10-31T06:27:27;3.80;;;3.60;;
20177;SDS011;10248;51.218;20.866;2022-10-31T06:29:57;3.90;;;3.70;;
20177;SDS011;10248;51.218;20.866;2022-10-31T06:32:24;3.65;;;3.53;;
20177;SDS011;10248;51.218;20.866;2022-10-31T06:34:52;3.90;;;3.70;;
20177;SDS011;10248;51.218;20.866;2022-10-31T06:37:21;3.97;;;3.78;;
20177;SDS011;10248;51.218;20.866;2022-10-31T06:39:49;3.95;;;3.75;;
20177;SDS011;10248;51.218;20.866;2022-10-31T06:42:18;3.55;;;3.45;;
20177;SDS011;10248;51.218;20.866;2022-10-31T06:44:46;3.10;;;3.00;;
20177;SDS011;10248;51.218;20.866;2022-10-31T06:47:13;3.22;;;3.13;;
20177;SDS011;10248;51.218;20.866;2022-10-31T06:49:42;3.28;;;3.17;;
20177;SDS011;10248;51.218;20.866;2022-10-31T06:52:10;3.50;;;3.40;;
20177;SDS011;10248;51.218;20.866;2022-10-31T06:54:39;3.50;;;3.40;;
20177;SDS011;10248;51.218;20.866;2022-10-31T06:57:06;3.13;;;3.03;;
20177;SDS011;10248;51.218;20.866;2022-10-31T06:59:34;3.50;;;3.40;;
20177;SDS011;10248;51.218;20.866;2022-10-31T07:02:02;3.58;;;3.47;;
20177;SDS011;10248;51.218;20.866;2022-10-31T07:04:30;3.72;;;3.63;;
20177;SDS011;10248;51.218;20.866;2022-10-31T07:06:58;3.90;;;3.80;;
20177;SDS011;10248;51.218;20.866;2022-10-31T07:09:25;3.88;;;3.78;;
20177;SDS011;10248;51.218;20.866;2022-10-31T07:11:55;3.50;;;3.40;;
20177;SDS011;10248;51.218;20.866;2022-10-31T07:14:24;3.80;;;3.70;;
20177;SDS011;10248;51.218;20.866;2022-10-31T07:16:53;3.50;;;3.40;;
20177;SDS011;10248;51.218;20.866;2022-10-31T07:19:21;3.60;;;3.50;;
20177;SDS011;10248;51.218;20.866;2022-10-31T07:21:54;3.33;;;3.22;;
20177;SDS011;10248;51.218;20.866;2022-10-31T07:24:25;3.70;;;3.60;;
20177;SDS011;10248;51.218;20.866;2022-10-31T07:26:54;3.80;;;3.70;;
20177;SDS011;10248;51.218;20.866;2022-10-31T07:29:22;3.80;;;3.70;;
20177;SDS011;10248;51.218;20.866;2022-10-31T07:31:51;3.65;;;3.55;;
20177;SDS011;10248;51.218;20.866;2022-10-31T07:34:20;3.85;;;3.75;;
20177;SDS011;10248;51.218;20.866;2022-10-31T07:36:48;4.10;;;4.00;;
20177;SDS011;10248;51.218;20.866;2022-10-31T07:39:18;3.85;;;3.75;;
20177;SDS011;10248;51.218;20.866;2022-10-31T07:41:46;3.90;;;3.80;;
20177;SDS011;10248;51.218;20.866;2022-10-31T07:44:16;3.80;;;3.70;;
20177;SDS011;10248;51.218;20.866;2022-10-31T07:46:45;3.70;;;3.60;;
20177;SDS011;10248;51.218;20.866;2022-10-31T07:49:12;3.42;;;3.33;;
20177;SDS011;10248;51.218;20.866;2022-10-31T07:51:41;3.40;;;3.30;;
20177;SDS011;10248;51.218;20.866;2022-10-31T07:54:11;3.37;;;3.27;;
20177;SDS011;10248;51.218;20.866;2022-10-31T07:56:39;3.50;;;3.40;;
20177;SDS011;10248;51.218;20.866;2022-10-31T07:59:07;3.22;;;3.13;;
20177;SDS011;10248;51.218;20.866;2022-10-31T08:01:37;3.50;;;3.40;;
20177;SDS011;10248;51.218;20.866;2022-10-31T08:04:05;3.50;;;3.40;;
20177;SDS011;10248;51.218;20.866;2022-10-31T08:06:34;3.50;;;3.40;;
20177;SDS011;10248;51.218;20.866;2022-10-31T08:09:02;3.40;;;3.30;;
20177;SDS011;10248;51.218;20.866;2022-10-31T08:11:31;3.40;;;3.30;;
20177;SDS011;10248;51.218;20.866;2022-10-31T08:13:59;3.38;;;3.28;;
20177;SDS011;10248;51.218;20.866;2022-10-31T08:16:27;3.40;;;3.30;;
20177;SDS011;10248;51.218;20.866;2022-10-31T08:18:57;3.40;;;3.30;;
20177;SDS011;10248;51.218;20.866;2022-10-31T08:21:26;3.50;;;3.40;;
20177;SDS011;10248;51.218;20.866;2022-10-31T08:23:53;3.50;;;3.40;;
20177;SDS011;10248;51.218;20.866;2022-10-31T08:26:21;3.70;;;3.60;;
20177;SDS011;10248;51.218;20.866;2022-10-31T08:28:50;3.72;;;3.63;;
20177;SDS011;10248;51.218;20.866;2022-10-31T08:31:19;3.50;;;3.40;;
20177;SDS011;10248;51.218;20.866;2022-10-31T08:33:49;3.53;;;3.42;;
20177;SDS011;10248;51.218;20.866;2022-10-31T08:36:18;3.80;;;3.70;;
20177;SDS011;10248;51.218;20.866;2022-10-31T08:38:46;3.70;;;3.60;;
20177;SDS011;10248;51.218;20.866;2022-10-31T08:41:14;3.70;;;3.60;;
20177;SDS011;10248;51.218;20.866;2022-10-31T08:43:43;3.75;;;3.65;;
20177;SDS011;10248;51.218;20.866;2022-10-31T08:46:11;3.70;;;3.60;;
20177;SDS011;10248;51.218;20.866;2022-10-31T08:48:38;3.85;;;3.75;;
20177;SDS011;10248;51.218;20.866;2022-10-31T08:51:06;3.60;;;3.50;;
20177;SDS011;10248;51.218;20.866;2022-10-31T08:53:35;3.90;;;3.80;;
20177;SDS011;10248;51.218;20.866;2022-10-31T08:56:03;3.80;;;3.70;;
20177;SDS011;10248;51.218;20.866;2022-10-31T08:58:33;3.70;;;3.60;;
20177;SDS011;10248;51.218;20.866;2022-10-31T09:01:05;3.80;;;3.70;;
20177;SDS011;10248;51.218;20.866;2022-10-31T09:03:37;3.70;;;3.60;;
20177;SDS011;10248;51.218;20.866;2022-10-31T09:06:10;3.80;;;3.70;;
20177;SDS011;10248;51.218;20.866;2022-10-31T09:08:47;3.75;;;3.65;;
20177;SDS011;10248;51.218;20.866;2022-10-31T09:11:18;3.80;;;3.70;;
20177;SDS011;10248;51.218;20.866;2022-10-31T09:13:46;3.78;;;3.67;;
20177;SDS011;10248;51.218;20.866;2022-10-31T09:16:14;3.70;;;3.60;;
20177;SDS011;10248;51.218;20.866;2022-10-31T09:18:44;3.70;;;3.60;;
20177;SDS011;10248;51.218;20.866;2022-10-31T09:21:39;3.80;;;3.70;;
20177;SDS011;10248;51.218;20.866;2022-10-31T09:24:17;3.60;;;3.50;;
20177;SDS011;10248;51.218;20.866;2022-10-31T09:26:48;3.80;;;3.70;;
20177;SDS011;10248;51.218;20.866;2022-10-31T09:29:34;3.70;;;3.60;;
20177;SDS011;10248;51.218;20.866;2022-10-31T09:32:02;3.50;;;3.40;;
20177;SDS011;10248;51.218;20.866;2022-10-31T09:34:33;3.80;;;3.70;;
20177;SDS011;10248;51.218;20.866;2022-10-31T09:37:03;3.70;;;3.60;;
20177;SDS011;10248;51.218;20.866;2022-10-31T09:39:39;3.53;;;3.42;;
20177;SDS011;10248;51.218;20.866;2022-10-31T09:44:59;3.70;;;3.60;;
20177;SDS011;10248;51.218;20.866;2022-10-31T09:47:43;3.60;;;3.50;;
20177;SDS011;10248;51.218;20.866;2022-10-31T09:50:17;3.60;;;3.50;;
20177;SDS011;10248;51.218;20.866;2022-10-31T09:52:51;3.80;;;3.70;;
20177;SDS011;10248;51.218;20.866;2022-10-31T09:55:30;3.85;;;3.75;;
20177;SDS011;10248;51.218;20.866;2022-10-31T09:57:59;3.80;;;3.70;;
20177;SDS011;10248;51.218;20.866;2022-10-31T10:00:28;3.80;;;3.70;;
20177;SDS011;10248;51.218;20.866;2022-10-31T10:05:33;3.70;;;3.60;;
20177;SDS011;10248;51.218;20.866;2022-10-31T10:08:07;3.70;;;3.60;;
20177;SDS011;10248;51.218;20.866;2022-10-31T10:10:50;3.60;;;3.50;;
20177;SDS011;10248;51.218;20.866;2022-10-31T10:13:27;3.70;;;3.60;;
20177;SDS011;10248;51.218;20.866;2022-10-31T10:16:17;3.80;;;3.70;;
20177;SDS011;10248;51.218;20.866;2022-10-31T10:19:03;3.72;;;3.63;;
20177;SDS011;10248;51.218;20.866;2022-10-31T10:21:41;3.80;;;3.70;;
20177;SDS011;10248;51.218;20.866;2022-10-31T10:24:17;3.60;;;3.50;;
20177;SDS011;10248;51.218;20.866;2022-10-31T10:27:04;3.60;;;3.50;;
20177;SDS011;10248;51.218;20.866;2022-10-31T10:29:37;3.70;;;3.60;;
20177;SDS011;10248;51.218;20.866;2022-10-31T10:32:09;3.70;;;3.60;;
20177;SDS011;10248;51.218;20.866;2022-10-31T10:34:40;3.70;;;3.60;;
20177;SDS011;10248;51.218;20.866;2022-10-31T10:37:20;3.70;;;3.60;;
20177;SDS011;10248;51.218;20.866;2022-10-31T10:39:52;3.60;;;3.50;;
20177;SDS011;10248;51.218;20.866;2022-10-31T10:42:23;3.77;;;3.67;;
20177;SDS011;10248;51.218;20.866;2022-10-31T10:45:13;3.70;;;3.60;;
20177;SDS011;10248;51.218;20.866;2022-10-31T10:48:06;3.80;;;3.70;;
20177;SDS011;10248;51.218;20.866;2022-10-31T10:50:44;3.80;;;3.70;;
20177;SDS011;10248;51.218;20.866;2022-10-31T10:53:18;3.60;;;3.50;;
20177;SDS011;10248;51.218;20.866;2022-10-31T10:55:59;3.53;;;3.42;;
20177;SDS011;10248;51.218;20.866;2022-10-31T10:58:36;3.60;;;3.50;;
20177;SDS011;10248;51.218;20.866;2022-10-31T11:01:08;3.70;;;3.60;;
20177;SDS011;10248;51.218;20.866;2022-10-31T11:03:38;3.60;;;3.50;;
20177;SDS011;10248;51.218;20.866;2022-10-31T11:06:15;3.60;;;3.50;;
20177;SDS011;10248;51.218;20.866;2022-10-31T11:08:47;3.53;;;3.43;;
20177;SDS011;10248;51.218;20.866;2022-10-31T11:11:19;3.70;;;3.60;;
20177;SDS011;10248;51.218;20.866;2022-10-31T11:14:01;3.63;;;3.53;;
20177;SDS011;10248;51.218;20.866;2022-10-31T11:16:32;3.60;;;3.50;;
20177;SDS011;10248;51.218;20.866;2022-10-31T11:19:16;3.60;;;3.50;;
20177;SDS011;10248;51.218;20.866;2022-10-31T11:21:44;3.60;;;3.50;;
20177;SDS011;10248;51.218;20.866;2022-10-31T11:24:19;3.80;;;3.70;;
20177;SDS011;10248;51.218;20.866;2022-10-31T11:26:51;3.70;;;3.60;;
20177;SDS011;10248;51.218;20.866;2022-10-31T11:31:51;3.97;;;3.88;;
20177;SDS011;10248;51.218;20.866;2022-10-31T11:34:27;3.80;;;3.70;;
20177;SDS011;10248;51.218;20.866;2022-10-31T11:37:00;3.60;;;3.50;;
20177;SDS011;10248;51.218;20.866;2022-10-31T11:39:30;3.63;;;3.53;;
20177;SDS011;10248;51.218;20.866;2022-10-31T11:41:59;3.60;;;3.50;;
20177;SDS011;10248;51.218;20.866;2022-10-31T11:44:35;3.53;;;3.42;;
20177;SDS011;10248;51.218;20.866;2022-10-31T11:47:03;3.70;;;3.60;;
20177;SDS011;10248;51.218;20.866;2022-10-31T11:49:34;3.60;;;3.50;;
20177;SDS011;10248;51.218;20.866;2022-10-31T11:52:06;3.70;;;3.60;;
20177;SDS011;10248;51.218;20.866;2022-10-31T11:54:38;3.80;;;3.70;;
20177;SDS011;10248;51.218;20.866;2022-10-31T11:57:25;3.78;;;3.67;;
20177;SDS011;10248;51.218;20.866;2022-10-31T12:02:23;3.83;;;3.72;;
20177;SDS011;10248;51.218;20.866;2022-10-31T12:04:54;3.70;;;3.60;;
20177;SDS011;10248;51.218;20.866;2022-10-31T12:07:25;3.70;;;3.60;;
20177;SDS011;10248;51.218;20.866;2022-10-31T12:09:53;3.90;;;3.80;;
20177;SDS011;10248;51.218;20.866;2022-10-31T12:15:20;3.70;;;3.60;;
20177;SDS011;10248;51.218;20.866;2022-10-31T12:17:57;3.90;;;3.80;;
20177;SDS011;10248;51.218;20.866;2022-10-31T12:20:33;3.90;;;3.80;;
20177;SDS011;10248;51.218;20.866;2022-10-31T12:23:09;3.95;;;3.85;;
20177;SDS011;10248;51.218;20.866;2022-10-31T12:25:43;4.05;;;3.95;;
20177;SDS011;10248;51.218;20.866;2022-10-31T12:28:21;4.20;;;4.10;;
20177;SDS011;10248;51.218;20.866;2022-10-31T12:31:10;4.18;;;4.07;;
20177;SDS011;10248;51.218;20.866;2022-10-31T12:33:49;4.00;;;3.90;;
20177;SDS011;10248;51.218;20.866;2022-10-31T12:36:29;4.10;;;4.00;;
20177;SDS011;10248;51.218;20.866;2022-10-31T12:39:14;4.10;;;4.00;;
20177;SDS011;10248;51.218;20.866;2022-10-31T12:41:51;3.70;;;3.60;;
20177;SDS011;10248;51.218;20.866;2022-10-31T12:44:30;4.10;;;4.00;;
20177;SDS011;10248;51.218;20.866;2022-10-31T12:50:10;4.10;;;4.00;;
20177;SDS011;10248;51.218;20.866;2022-10-31T12:53:00;4.10;;;4.00;;
20177;SDS011;10248;51.218;20.866;2022-10-31T12:55:38;4.10;;;4.00;;
20177;SDS011;10248;51.218;20.866;2022-10-31T12:58:12;4.00;;;3.90;;
20177;SDS011;10248;51.218;20.866;2022-10-31T13:00:44;4.10;;;4.00;;
20177;SDS011;10248;51.218;20.866;2022-10-31T13:03:19;4.40;;;4.20;;
20177;SDS011;10248;51.218;20.866;2022-10-31T13:05:52;4.18;;;4.07;;
20177;SDS011;10248;51.218;20.866;2022-10-31T13:08:22;4.13;;;4.03;;
20177;SDS011;10248;51.218;20.866;2022-10-31T13:10:55;4.20;;;4.10;;
20177;SDS011;10248;51.218;20.866;2022-10-31T13:13:31;4.10;;;4.00;;
20177;SDS011;10248;51.218;20.866;2022-10-31T13:16:03;4.00;;;3.90;;
20177;SDS011;10248;51.218;20.866;2022-10-31T13:18:44;3.90;;;3.80;;
20177;SDS011;10248;51.218;20.866;2022-10-31T13:21:17;3.60;;;3.50;;
20177;SDS011;10248;51.218;20.866;2022-10-31T13:23:57;4.00;;;3.90;;
20177;SDS011;10248;51.218;20.866;2022-10-31T13:26:31;3.88;;;3.78;;
20177;SDS011;10248;51.218;20.866;2022-10-31T13:29:05;3.88;;;3.78;;
20177;SDS011;10248;51.218;20.866;2022-10-31T13:31:39;3.75;;;3.65;;
20177;SDS011;10248;51.218;20.866;2022-10-31T13:34:13;3.90;;;3.80;;
20177;SDS011;10248;51.218;20.866;2022-10-31T13:36:48;3.70;;;3.60;;
20177;SDS011;10248;51.218;20.866;2022-10-31T13:39:23;3.75;;;3.65;;
20177;SDS011;10248;51.218;20.866;2022-10-31T13:41:57;3.78;;;3.67;;
20177;SDS011;10248;51.218;20.866;2022-10-31T13:44:29;3.63;;;3.53;;
20177;SDS011;10248;51.218;20.866;2022-10-31T13:47:03;3.72;;;3.63;;
20177;SDS011;10248;51.218;20.866;2022-10-31T13:50:02;3.70;;;3.60;;
20177;SDS011;10248;51.218;20.866;2022-10-31T13:52:45;3.78;;;3.67;;
20177;SDS011;10248;51.218;20.866;2022-10-31T13:58:03;3.40;;;3.30;;
20177;SDS011;10248;51.218;20.866;2022-10-31T14:00:45;3.50;;;3.40;;
20177;SDS011;10248;51.218;20.866;2022-10-31T14:03:17;3.30;;;3.20;;
20177;SDS011;10248;51.218;20.866;2022-10-31T14:06:07;3.47;;;3.38;;
20177;SDS011;10248;51.218;20.866;2022-10-31T14:08:37;3.50;;;3.40;;
20177;SDS011;10248;51.218;20.866;2022-10-31T14:11:07;3.40;;;3.30;;
20177;SDS011;10248;51.218;20.866;2022-10-31T14:13:36;3.40;;;3.30;;
20177;SDS011;10248;51.218;20.866;2022-10-31T14:16:17;3.40;;;3.30;;
20177;SDS011;10248;51.218;20.866;2022-10-31T14:18:48;3.30;;;3.20;;
20177;SDS011;10248;51.218;20.866;2022-10-31T14:21:27;3.00;;;2.90;;
20177;SDS011;10248;51.218;20.866;2022-10-31T14:23:56;3.20;;;3.10;;
20177;SDS011;10248;51.218;20.866;2022-10-31T14:26:32;3.20;;;3.10;;
20177;SDS011;10248;51.218;20.866;2022-10-31T14:29:02;3.40;;;3.30;;
20177;SDS011;10248;51.218;20.866;2022-10-31T14:31:55;3.53;;;3.42;;
20177;SDS011;10248;51.218;20.866;2022-10-31T14:34:26;3.50;;;3.40;;
20177;SDS011;10248;51.218;20.866;2022-10-31T14:37:01;3.30;;;3.20;;
20177;SDS011;10248;51.218;20.866;2022-10-31T14:39:39;3.50;;;3.40;;
20177;SDS011;10248;51.218;20.866;2022-10-31T14:42:17;3.30;;;3.20;;
20177;SDS011;10248;51.218;20.866;2022-10-31T14:45:00;3.30;;;3.20;;
20177;SDS011;10248;51.218;20.866;2022-10-31T14:47:45;3.20;;;3.10;;
20177;SDS011;10248;51.218;20.866;2022-10-31T14:50:24;3.20;;;3.10;;
20177;SDS011;10248;51.218;20.866;2022-10-31T14:53:04;3.30;;;3.20;;
20177;SDS011;10248;51.218;20.866;2022-10-31T14:55:33;3.30;;;3.20;;
20177;SDS011;10248;51.218;20.866;2022-10-31T14:58:01;3.10;;;3.00;;
20177;SDS011;10248;51.218;20.866;2022-10-31T15:00:32;3.58;;;3.47;;
20177;SDS011;10248;51.218;20.866;2022-10-31T15:03:05;3.60;;;3.50;;
20177;SDS011;10248;51.218;20.866;2022-10-31T15:05:40;3.40;;;3.30;;
20177;SDS011;10248;51.218;20.866;2022-10-31T15:08:14;3.65;;;3.55;;
20177;SDS011;10248;51.218;20.866;2022-10-31T15:10:54;3.30;;;3.20;;
20177;SDS011;10248;51.218;20.866;2022-10-31T15:13:22;3.10;;;3.00;;
20177;SDS011;10248;51.218;20.866;2022-10-31T15:15:51;3.30;;;3.20;;
20177;SDS011;10248;51.218;20.866;2022-10-31T15:18:24;3.28;;;3.17;;
20177;SDS011;10248;51.218;20.866;2022-10-31T15:20:53;3.20;;;3.10;;
20177;SDS011;10248;51.218;20.866;2022-10-31T15:23:24;3.25;;;3.15;;